createdAt,value
2023-05-21T00:00:23.049Z,16.06
2023-05-21T00:02:59.182Z,16.03
2023-05-21T00:05:32.591Z,16.03
2023-05-21T00:08:06.363Z,15.99
2023-05-21T00:10:39.413Z,16.05
2023-05-21T00:13:12.563Z,15.98
2023-05-21T00:15:45.604Z,15.95
2023-05-21T00:18:20.069Z,15.95
2023-05-21T00:20:53.391Z,15.93
2023-05-21T00:23:26.881Z,15.87
2023-05-21T00:26:00.042Z,15.88
2023-05-21T00:28:33.084Z,15.83
2023-05-21T00:31:06.210Z,15.80
2023-05-21T00:33:40.688Z,15.79
2023-05-21T00:36:40.438Z,15.76
2023-05-21T00:39:14.224Z,15.70
2023-05-21T00:41:48.613Z,15.68
2023-05-21T00:44:22.092Z,15.60
2023-05-21T00:46:55.288Z,15.58
2023-05-21T00:49:30.582Z,15.55
2023-05-21T00:52:03.666Z,15.53
2023-05-21T00:54:37.084Z,15.51
2023-05-21T00:57:10.698Z,15.51
2023-05-21T00:59:43.814Z,15.50
2023-05-21T01:02:18.225Z,15.45
2023-05-21T01:04:55.577Z,15.41
2023-05-21T01:07:28.621Z,15.42
2023-05-21T01:10:03.777Z,15.38
2023-05-21T01:12:39.447Z,15.31
2023-05-21T01:15:13.153Z,15.31
2023-05-21T01:17:46.806Z,15.30
2023-05-21T01:20:21.620Z,15.29
2023-05-21T01:22:57.599Z,15.25
2023-05-21T01:25:30.708Z,15.23
2023-05-21T01:28:04.010Z,15.22
2023-05-21T01:30:37.783Z,15.24
2023-05-21T01:33:20.275Z,15.21
2023-05-21T01:36:11.773Z,15.16
2023-05-21T01:38:56.181Z,15.10
2023-05-21T01:41:34.503Z,15.06
2023-05-21T01:44:09.750Z,15.04
2023-05-21T01:46:42.877Z,15.01
2023-05-21T01:49:17.545Z,15.00
2023-05-21T01:51:51.300Z,14.98
2023-05-21T01:54:25.712Z,14.98
2023-05-21T01:56:58.789Z,14.95
2023-05-21T01:59:31.984Z,14.90
2023-05-21T02:02:05.329Z,14.89
2023-05-21T02:04:41.284Z,14.85
2023-05-21T02:07:14.450Z,14.84
2023-05-21T02:09:48.862Z,14.79
2023-05-21T02:12:22.034Z,14.76
2023-05-21T02:14:56.308Z,14.79
2023-05-21T02:17:31.230Z,14.79
2023-05-21T02:20:11.456Z,14.78
2023-05-21T02:22:47.258Z,14.79
2023-05-21T02:25:21.821Z,14.70
2023-05-21T02:27:56.693Z,14.71
2023-05-21T02:30:30.136Z,14.63
2023-05-21T02:33:03.261Z,14.57
2023-05-21T02:35:36.717Z,14.49
2023-05-21T02:38:10.571Z,14.53
2023-05-21T02:40:44.985Z,14.55
2023-05-21T02:43:18.287Z,14.51
2023-05-21T02:45:52.392Z,14.46
2023-05-21T02:48:25.573Z,14.41
2023-05-21T02:50:59.821Z,14.41
2023-05-21T02:53:32.852Z,14.40
2023-05-21T02:56:07.808Z,14.39
2023-05-21T02:58:41.712Z,14.36
2023-05-21T03:01:14.797Z,14.34
2023-05-21T03:03:47.943Z,14.33
2023-05-21T03:06:21.079Z,14.31
2023-05-21T03:08:54.233Z,14.27
2023-05-21T03:11:28.692Z,14.22
2023-05-21T03:14:01.713Z,14.20
2023-05-21T03:16:34.889Z,14.19
2023-05-21T03:19:08.142Z,14.15
2023-05-21T03:21:41.792Z,14.13
2023-05-21T03:24:15.297Z,14.17
2023-05-21T03:26:50.349Z,14.16
2023-05-21T03:29:23.409Z,14.14
2023-05-21T03:31:56.719Z,14.13
2023-05-21T03:34:30.239Z,14.10
2023-05-21T03:37:03.371Z,14.11
2023-05-21T03:39:36.422Z,14.08
2023-05-21T03:42:10.813Z,14.06
2023-05-21T03:44:43.874Z,14.04
2023-05-21T03:47:17.471Z,14.06
2023-05-21T03:49:50.692Z,14.01
2023-05-21T03:52:23.775Z,13.89
2023-05-21T03:54:56.877Z,13.92
2023-05-21T03:57:31.294Z,13.92
2023-05-21T04:00:06.421Z,13.89
2023-05-21T04:02:39.515Z,13.88
2023-05-21T04:05:12.687Z,13.90
2023-05-21T04:07:46.336Z,14.00
2023-05-21T04:10:19.634Z,14.11
2023-05-21T04:12:54.173Z,14.11
2023-05-21T04:15:27.776Z,13.96
2023-05-21T04:18:01.017Z,13.91
2023-05-21T04:20:34.229Z,13.91
2023-05-21T04:23:07.412Z,13.87
2023-05-21T04:25:40.527Z,13.85
2023-05-21T04:28:20.448Z,13.91
2023-05-21T04:30:53.686Z,13.93
2023-05-21T04:33:27.036Z,13.94
2023-05-21T04:36:00.194Z,14.00
2023-05-21T04:38:33.309Z,14.02
2023-05-21T04:41:06.921Z,14.01
2023-05-21T04:43:43.992Z,14.02
2023-05-21T04:46:17.254Z,14.12
2023-05-21T04:48:52.344Z,14.14
2023-05-21T04:51:26.751Z,14.15
2023-05-21T04:53:59.883Z,14.25
2023-05-21T04:56:32.959Z,14.25
2023-05-21T04:59:07.615Z,14.23
2023-05-21T05:01:41.176Z,14.25
2023-05-21T05:04:14.460Z,14.23
2023-05-21T05:06:47.691Z,14.22
2023-05-21T05:09:24.078Z,14.29
2023-05-21T05:11:57.405Z,14.32
2023-05-21T05:14:31.962Z,14.38
2023-05-21T05:17:05.704Z,14.36
2023-05-21T05:19:38.954Z,14.37
2023-05-21T05:22:13.531Z,14.43
2023-05-21T05:24:46.832Z,14.43
2023-05-21T05:27:19.953Z,14.51
2023-05-21T05:29:54.374Z,14.70
2023-05-21T05:32:27.450Z,14.73
2023-05-21T05:35:02.423Z,14.79
2023-05-21T05:37:35.914Z,14.83
2023-05-21T05:40:10.047Z,14.97
2023-05-21T05:42:43.211Z,15.07
2023-05-21T05:45:17.661Z,15.25
2023-05-21T05:47:50.906Z,15.37
2023-05-21T05:50:24.070Z,15.50
2023-05-21T05:52:57.324Z,15.64
2023-05-21T05:55:30.652Z,15.77
2023-05-21T05:58:03.801Z,15.87
2023-05-21T06:00:38.285Z,15.94
2023-05-21T06:03:12.163Z,16.07
2023-05-21T06:05:45.751Z,16.19
2023-05-21T06:08:18.974Z,16.43
2023-05-21T06:10:52.551Z,16.82
2023-05-21T06:13:25.646Z,17.11
2023-05-21T06:16:00.623Z,17.28
2023-05-21T06:18:33.843Z,17.58
2023-05-21T06:21:07.165Z,17.80
2023-05-21T06:23:40.302Z,17.89
2023-05-21T06:26:13.452Z,18.01
2023-05-21T06:28:46.692Z,18.19
2023-05-21T06:31:23.523Z,18.44
2023-05-21T06:33:56.928Z,18.60
2023-05-21T06:36:32.374Z,18.77
2023-05-21T06:39:05.706Z,18.95
2023-05-21T06:41:38.901Z,19.35
2023-05-21T06:44:12.173Z,19.98
2023-05-21T06:46:46.606Z,20.33
2023-05-21T06:49:19.809Z,20.66
2023-05-21T06:51:52.938Z,20.90
2023-05-21T06:54:27.072Z,21.03
2023-05-21T06:57:00.354Z,21.05
2023-05-21T06:59:34.649Z,21.29
2023-05-21T07:02:09.475Z,21.07
2023-05-21T07:04:42.632Z,21.21
2023-05-21T07:07:15.807Z,21.35
2023-05-21T07:09:49.290Z,21.47
2023-05-21T07:12:22.553Z,21.48
2023-05-21T07:14:57.546Z,21.57
2023-05-21T07:17:33.442Z,21.79
2023-05-21T07:20:08.952Z,21.99
2023-05-21T07:22:44.942Z,22.20
2023-05-21T07:25:18.230Z,22.31
2023-05-21T07:27:51.333Z,22.65
2023-05-21T07:30:24.594Z,23.14
2023-05-21T07:32:59.131Z,23.17
2023-05-21T07:35:32.325Z,23.28
2023-05-21T07:38:06.235Z,23.27
2023-05-21T07:40:39.410Z,23.75
2023-05-21T07:43:13.242Z,23.81
2023-05-21T07:45:46.416Z,24.03
2023-05-21T07:48:21.068Z,24.18
2023-05-21T07:50:54.690Z,24.93
2023-05-21T07:53:28.861Z,25.04
2023-05-21T07:56:02.441Z,25.35
2023-05-21T07:58:36.168Z,25.60
2023-05-21T08:01:09.350Z,25.62
2023-05-21T08:03:44.032Z,25.87
2023-05-21T08:06:17.455Z,25.62
2023-05-21T08:08:50.840Z,25.55
2023-05-21T08:11:23.989Z,25.17
2023-05-21T08:13:57.237Z,25.40
2023-05-21T08:16:30.490Z,25.29
2023-05-21T08:19:05.145Z,25.30
2023-05-21T08:21:38.415Z,24.94
2023-05-21T08:24:11.673Z,25.01
2023-05-21T08:26:45.213Z,24.94
2023-05-21T08:29:18.394Z,24.27
2023-05-21T08:31:51.593Z,23.74
2023-05-21T08:34:26.749Z,23.63
2023-05-21T08:36:59.879Z,23.74
2023-05-21T08:39:33.103Z,23.73
2023-05-21T08:42:17.685Z,23.76
2023-05-21T08:45:00.479Z,23.47
2023-05-21T08:47:36.880Z,23.75
2023-05-21T08:50:15.044Z,23.75
2023-05-21T08:52:48.564Z,23.66
2023-05-21T08:55:22.507Z,23.95
2023-05-21T08:57:56.657Z,23.63
2023-05-21T09:00:29.884Z,23.64
2023-05-21T09:03:07.732Z,22.74
2023-05-21T09:05:43.544Z,23.22
2023-05-21T09:08:21.137Z,23.44
2023-05-21T09:10:54.618Z,23.48
2023-05-21T09:13:28.884Z,23.48
2023-05-21T09:16:02.253Z,23.33
2023-05-21T09:18:35.510Z,23.15
2023-05-21T09:21:29.272Z,23.29
2023-05-21T09:24:02.713Z,22.72
2023-05-21T09:26:35.828Z,22.92
2023-05-21T09:29:09.248Z,23.22
2023-05-21T09:31:45.419Z,23.36
2023-05-21T09:34:18.907Z,23.66
2023-05-21T09:36:53.655Z,23.76
2023-05-21T09:39:30.599Z,24.26
2023-05-21T09:42:03.742Z,24.13
2023-05-21T09:44:36.998Z,24.35
2023-05-21T09:47:10.549Z,24.46
2023-05-21T09:49:45.657Z,24.47
2023-05-21T09:52:27.580Z,24.20
2023-05-21T09:55:01.487Z,24.51
2023-05-21T09:57:41.566Z,24.51
2023-05-21T10:00:21.317Z,24.72
2023-05-21T10:02:57.214Z,24.68
2023-05-21T10:05:32.068Z,24.94
2023-05-21T10:08:10.642Z,24.85
2023-05-21T10:10:45.400Z,24.68
2023-05-21T10:13:23.070Z,24.86
2023-05-21T10:16:03.323Z,24.86
2023-05-21T10:18:39.053Z,24.79
2023-05-21T10:21:12.321Z,24.87
2023-05-21T10:23:47.644Z,25.10
2023-05-21T10:26:23.370Z,25.00
2023-05-21T10:29:00.315Z,24.91
2023-05-21T10:31:35.027Z,24.90
2023-05-21T10:34:08.879Z,24.69
2023-05-21T10:36:42.980Z,25.05
2023-05-21T10:39:20.774Z,25.21
2023-05-21T10:42:04.768Z,24.95
2023-05-21T10:44:55.527Z,25.14
2023-05-21T10:47:59.605Z,25.27
2023-05-21T10:51:11.858Z,25.13
2023-05-21T10:54:05.555Z,24.96
2023-05-21T10:56:43.981Z,24.41
2023-05-21T10:59:31.660Z,24.57
2023-05-21T11:02:07.088Z,24.67
2023-05-21T11:04:43.374Z,24.91
2023-05-21T11:07:24.172Z,24.92
2023-05-21T11:10:33.006Z,25.07
2023-05-21T11:13:14.224Z,25.28
2023-05-21T11:16:08.072Z,25.46
2023-05-21T11:19:02.483Z,25.42
2023-05-21T11:21:36.245Z,25.30
2023-05-21T11:24:11.272Z,25.25
2023-05-21T11:27:04.972Z,25.35
2023-05-21T11:29:45.413Z,25.30
2023-05-21T11:32:20.756Z,25.19
2023-05-21T11:34:54.043Z,25.39
2023-05-21T11:37:34.526Z,25.50
2023-05-21T11:40:26.086Z,25.58
2023-05-21T11:42:59.457Z,25.48
2023-05-21T11:45:34.671Z,25.13
2023-05-21T11:48:08.446Z,25.30
2023-05-21T11:50:42.496Z,25.67
2023-05-21T11:53:16.309Z,25.55
2023-05-21T11:55:57.221Z,25.69
2023-05-21T11:58:32.675Z,25.72
2023-05-21T12:01:07.325Z,25.61
2023-05-21T12:03:40.739Z,25.57
2023-05-21T12:06:14.153Z,25.70
2023-05-21T12:08:58.104Z,25.38
2023-05-21T12:11:31.574Z,25.19
2023-05-21T12:14:04.904Z,25.15
2023-05-21T12:16:41.297Z,24.95
2023-05-21T12:19:18.682Z,25.12
2023-05-21T12:21:52.177Z,25.73
2023-05-21T12:24:25.490Z,25.62
2023-05-21T12:27:01.390Z,25.34
2023-05-21T12:29:35.618Z,25.30
2023-05-21T12:32:12.800Z,25.32
2023-05-21T12:34:48.678Z,25.61
2023-05-21T12:37:23.945Z,25.78
2023-05-21T12:40:00.848Z,25.63
2023-05-21T12:42:35.466Z,25.74
2023-05-21T12:45:10.472Z,25.72
2023-05-21T12:47:55.923Z,25.98
2023-05-21T12:50:29.617Z,25.52
2023-05-21T12:53:02.771Z,25.56
2023-05-21T12:55:37.341Z,25.40
2023-05-21T12:58:14.862Z,25.39
2023-05-21T13:00:48.651Z,25.36
2023-05-21T13:03:25.134Z,25.54
2023-05-21T13:06:01.234Z,25.60
2023-05-21T13:08:34.780Z,25.53
2023-05-21T13:11:08.031Z,25.52
2023-05-21T13:13:41.220Z,25.54
2023-05-21T13:16:14.463Z,25.54
2023-05-21T13:18:48.944Z,25.61
2023-05-21T13:21:22.142Z,25.58
2023-05-21T13:23:55.467Z,25.62
2023-05-21T13:26:28.802Z,25.73
2023-05-21T13:29:02.002Z,25.74
2023-05-21T13:31:35.111Z,25.72
2023-05-21T13:34:09.508Z,25.79
2023-05-21T13:36:43.086Z,26.02
2023-05-21T13:39:16.411Z,26.06
2023-05-21T13:41:49.641Z,26.15
2023-05-21T13:44:22.724Z,26.28
2023-05-21T13:46:55.843Z,26.19
2023-05-21T13:49:30.597Z,26.25
2023-05-21T13:52:04.682Z,26.40
2023-05-21T13:54:37.839Z,26.36
2023-05-21T13:57:11.086Z,26.38
2023-05-21T13:59:44.174Z,26.41
2023-05-21T14:02:17.391Z,26.47
2023-05-21T14:04:51.795Z,26.58
2023-05-21T14:07:24.944Z,26.75
2023-05-21T14:09:59.068Z,26.71
2023-05-21T14:12:33.337Z,26.75
2023-05-21T14:15:08.023Z,26.84
2023-05-21T14:17:42.428Z,27.15
2023-05-21T14:20:17.042Z,27.06
2023-05-21T14:22:50.329Z,26.86
2023-05-21T14:25:23.377Z,26.86
2023-05-21T14:27:56.477Z,26.85
2023-05-21T14:30:29.513Z,26.78
2023-05-21T14:33:02.616Z,26.77
2023-05-21T14:35:37.253Z,26.82
2023-05-21T14:38:10.609Z,26.82
2023-05-21T14:40:43.704Z,26.73
2023-05-21T14:43:16.894Z,26.77
2023-05-21T14:45:50.274Z,27.17
2023-05-21T14:48:24.007Z,26.95
2023-05-21T14:50:58.454Z,26.86
2023-05-21T14:53:32.281Z,26.83
2023-05-21T14:56:06.125Z,26.69
2023-05-21T14:58:39.232Z,26.69
2023-05-21T15:01:12.503Z,26.76
2023-05-21T15:03:45.665Z,26.75
2023-05-21T15:06:20.161Z,26.68
2023-05-21T15:08:53.208Z,26.63
2023-05-21T15:11:26.247Z,26.63
2023-05-21T15:13:59.282Z,26.51
2023-05-21T15:16:32.513Z,26.36
2023-05-21T15:19:05.953Z,26.41
2023-05-21T15:21:40.450Z,26.33
2023-05-21T15:24:13.505Z,26.09
2023-05-21T15:26:46.992Z,26.24
2023-05-21T15:29:20.036Z,26.19
2023-05-21T15:31:53.128Z,26.24
2023-05-21T15:34:26.562Z,26.26
2023-05-21T15:37:01.138Z,26.15
2023-05-21T15:39:34.233Z,26.24
2023-05-21T15:42:07.268Z,26.27
2023-05-21T15:44:41.174Z,26.33
2023-05-21T15:47:14.239Z,26.38
2023-05-21T15:49:47.357Z,26.35
2023-05-21T15:52:21.791Z,26.41
2023-05-21T15:54:54.868Z,26.49
2023-05-21T15:57:27.931Z,26.59
2023-05-21T16:00:01.143Z,26.67
2023-05-21T16:02:34.356Z,26.55
2023-05-21T16:05:07.882Z,26.59
2023-05-21T16:07:42.544Z,26.52
2023-05-21T16:10:15.678Z,26.59
2023-05-21T16:12:48.857Z,26.68
2023-05-21T16:15:22.288Z,26.49
2023-05-21T16:17:55.502Z,26.54
2023-05-21T16:20:30.654Z,26.60
2023-05-21T16:23:06.418Z,26.61
2023-05-21T16:25:39.650Z,26.60
2023-05-21T16:28:13.170Z,26.56
2023-05-21T16:30:46.270Z,26.51
2023-05-21T16:33:20.385Z,26.56
2023-05-21T16:35:54.377Z,26.63
2023-05-21T16:38:28.894Z,26.42
2023-05-21T16:41:01.975Z,26.33
2023-05-21T16:43:35.196Z,26.13
2023-05-21T16:46:08.333Z,26.04
2023-05-21T16:48:42.700Z,25.91
2023-05-21T16:51:15.815Z,25.82
2023-05-21T16:53:50.351Z,25.74
2023-05-21T16:56:23.550Z,25.69
2023-05-21T16:58:56.659Z,25.57
2023-05-21T17:01:29.849Z,25.57
2023-05-21T17:04:03.178Z,25.54
2023-05-21T17:06:36.373Z,25.50
2023-05-21T17:09:10.799Z,25.46
2023-05-21T17:11:44.072Z,25.38
2023-05-21T17:14:27.005Z,25.29
2023-05-21T17:17:07.699Z,25.18
2023-05-21T17:19:41.721Z,25.12
2023-05-21T17:22:15.932Z,25.03
2023-05-21T17:24:50.532Z,24.93
2023-05-21T17:27:23.602Z,24.84
2023-05-21T17:29:57.247Z,24.76
2023-05-21T17:32:30.373Z,24.64
2023-05-21T17:35:03.716Z,24.52
2023-05-21T17:37:36.813Z,24.44
2023-05-21T17:40:12.906Z,24.36
2023-05-21T17:42:46.011Z,24.31
2023-05-21T17:45:19.266Z,24.15
2023-05-21T17:47:52.967Z,24.05
2023-05-21T17:50:26.112Z,23.97
2023-05-21T17:52:59.294Z,23.85
2023-05-21T17:55:33.756Z,23.76
2023-05-21T17:58:06.811Z,23.66
2023-05-21T18:00:39.931Z,23.55
2023-05-21T18:03:13.050Z,23.44
2023-05-21T18:05:46.109Z,23.32
2023-05-21T18:08:19.176Z,23.22
2023-05-21T18:10:53.644Z,23.13
2023-05-21T18:13:26.749Z,23.01
2023-05-21T18:16:00.120Z,22.87
2023-05-21T18:18:33.289Z,22.76
2023-05-21T18:21:06.372Z,22.68
2023-05-21T18:23:39.997Z,22.54
2023-05-21T18:26:14.433Z,22.37
2023-05-21T18:28:47.598Z,22.30
2023-05-21T18:31:20.915Z,22.21
2023-05-21T18:33:54.121Z,22.14
2023-05-21T18:36:27.540Z,22.05
2023-05-21T18:39:00.566Z,21.92
2023-05-21T18:41:35.344Z,21.83
2023-05-21T18:44:08.384Z,21.73
2023-05-21T18:46:42.291Z,21.66
2023-05-21T18:49:15.434Z,21.56
2023-05-21T18:51:48.705Z,21.47
2023-05-21T18:54:21.789Z,21.35
2023-05-21T18:56:59.575Z,21.24
2023-05-21T18:59:32.712Z,21.11
2023-05-21T19:02:06.499Z,20.99
2023-05-21T19:04:39.629Z,20.88
2023-05-21T19:07:13.003Z,20.76
2023-05-21T19:09:46.125Z,20.67
2023-05-21T19:12:20.615Z,20.53
2023-05-21T19:14:53.874Z,20.42
2023-05-21T19:17:27.085Z,20.32
2023-05-21T19:20:00.874Z,20.24
2023-05-21T19:22:34.146Z,20.20
2023-05-21T19:25:08.290Z,20.04
2023-05-21T19:27:43.040Z,20.01
2023-05-21T19:30:16.521Z,19.94
2023-05-21T19:32:49.665Z,19.83
2023-05-21T19:35:23.480Z,19.76
2023-05-21T19:38:00.632Z,19.67
2023-05-21T19:40:35.450Z,19.61
2023-05-21T19:43:10.055Z,19.55
2023-05-21T19:45:43.168Z,19.51
2023-05-21T19:48:17.030Z,19.40
2023-05-21T19:50:50.119Z,19.32
2023-05-21T19:53:24.246Z,19.24
2023-05-21T19:55:57.328Z,19.13
2023-05-21T19:58:33.091Z,19.04
2023-05-21T20:01:06.427Z,18.99
2023-05-21T20:03:42.613Z,18.93
2023-05-21T20:06:18.744Z,18.84
2023-05-21T20:08:52.043Z,18.76
2023-05-21T20:11:25.984Z,18.71
2023-05-21T20:14:02.124Z,18.65
2023-05-21T20:16:35.312Z,18.61
2023-05-21T20:19:10.826Z,18.56
2023-05-21T20:21:44.088Z,18.44
2023-05-21T20:24:17.285Z,18.42
2023-05-21T20:26:50.359Z,18.41
2023-05-21T20:29:24.945Z,18.33
2023-05-21T20:31:58.057Z,18.31
2023-05-21T20:34:31.904Z,18.31
2023-05-21T20:37:05.244Z,18.30
2023-05-21T20:39:39.424Z,18.27
2023-05-21T20:42:15.006Z,18.06
2023-05-21T20:44:49.667Z,18.04
2023-05-21T20:47:23.375Z,17.97
2023-05-21T20:49:57.700Z,17.95
2023-05-21T20:52:30.783Z,17.87
2023-05-21T20:55:04.520Z,17.80
2023-05-21T20:57:37.675Z,17.75
2023-05-21T21:00:15.847Z,17.67
2023-05-21T21:02:49.587Z,17.65
2023-05-21T21:05:24.310Z,17.51
2023-05-21T21:08:02.377Z,17.30
2023-05-21T21:10:35.917Z,17.40
2023-05-21T21:13:09.451Z,17.49
2023-05-21T21:15:44.149Z,17.47
2023-05-21T21:18:17.608Z,17.41
2023-05-21T21:20:50.731Z,17.36
2023-05-21T21:23:25.468Z,17.34
2023-05-21T21:25:58.647Z,17.32
2023-05-21T21:28:31.776Z,17.31
2023-05-21T21:31:06.316Z,17.22
2023-05-21T21:33:39.418Z,17.13
2023-05-21T21:36:13.103Z,17.03
2023-05-21T21:38:46.221Z,17.01
2023-05-21T21:41:20.374Z,16.96
2023-05-21T21:43:53.455Z,16.95
2023-05-21T21:46:27.943Z,16.82
2023-05-21T21:49:01.082Z,16.79
2023-05-21T21:51:35.392Z,16.78
2023-05-21T21:54:08.484Z,16.73
2023-05-21T21:56:41.542Z,16.69
2023-05-21T21:59:15.064Z,16.64
2023-05-21T22:01:49.686Z,16.59
2023-05-21T22:04:22.790Z,16.56
2023-05-21T22:06:56.006Z,16.54
2023-05-21T22:09:29.157Z,16.52
2023-05-21T22:12:07.586Z,16.46
2023-05-21T22:14:43.646Z,16.44
2023-05-21T22:17:18.101Z,16.39
2023-05-21T22:19:51.315Z,16.41
2023-05-21T22:22:25.907Z,16.39
2023-05-21T22:24:58.972Z,16.34
2023-05-21T22:27:32.202Z,16.26
2023-05-21T22:30:06.881Z,16.21
2023-05-21T22:32:41.507Z,16.15
2023-05-21T22:35:14.855Z,16.07
2023-05-21T22:37:47.947Z,16.08
2023-05-21T22:40:21.155Z,16.08
2023-05-21T22:42:54.252Z,16.01
2023-05-21T22:45:28.508Z,15.99
2023-05-21T22:48:07.393Z,15.95
2023-05-21T22:50:40.905Z,15.93
2023-05-21T22:53:14.345Z,15.92
2023-05-21T22:55:47.463Z,15.97
2023-05-21T22:58:20.756Z,15.96
2023-05-21T23:00:53.834Z,15.89
2023-05-21T23:03:28.265Z,15.83
2023-05-21T23:06:01.536Z,15.74
2023-05-21T23:08:34.617Z,15.71
2023-05-21T23:11:07.726Z,15.64
2023-05-21T23:13:40.793Z,15.65
2023-05-21T23:16:14.585Z,15.61
2023-05-21T23:18:49.913Z,15.60
2023-05-21T23:21:23.328Z,15.58
2023-05-21T23:23:56.566Z,15.56
2023-05-21T23:26:29.685Z,15.60
2023-05-21T23:29:03.332Z,15.47
2023-05-21T23:31:37.065Z,15.42
2023-05-21T23:34:12.234Z,15.45
2023-05-21T23:36:45.360Z,15.41
2023-05-21T23:39:18.385Z,15.39
2023-05-21T23:41:51.756Z,15.39
2023-05-21T23:44:24.817Z,15.37
2023-05-21T23:46:57.863Z,15.37
2023-05-21T23:49:32.260Z,15.28
2023-05-21T23:52:07.305Z,15.28
2023-05-21T23:54:41.505Z,15.27
2023-05-21T23:57:14.580Z,15.15
2023-05-21T23:59:47.659Z,15.15
